createdAt,value
2019-05-26T00:00:15.271Z,13.90
2019-05-26T00:03:23.123Z,13.90
2019-05-26T00:06:31.151Z,13.80
2019-05-26T00:09:39.178Z,13.90
2019-05-26T00:12:49.735Z,13.90
2019-05-26T00:15:57.590Z,13.90
2019-05-26T00:19:05.581Z,13.90
2019-05-26T00:22:13.532Z,13.90
2019-05-26T00:25:21.700Z,13.90
2019-05-26T00:28:30.518Z,13.90
2019-05-26T00:31:38.148Z,13.90
2019-05-26T00:34:47.362Z,13.90
2019-05-26T00:37:55.228Z,13.90
2019-05-26T00:41:03.312Z,14.00
2019-05-26T00:44:11.182Z,13.90
2019-05-26T00:47:19.040Z,13.90
2019-05-26T00:50:26.986Z,13.90
2019-05-26T00:53:35.235Z,14.00
2019-05-26T00:56:43.533Z,14.00
2019-05-26T00:59:51.096Z,14.00
2019-05-26T01:02:58.776Z,14.00
2019-05-26T01:06:06.660Z,14.00
2019-05-26T01:09:14.685Z,14.00
2019-05-26T01:12:22.415Z,14.00
2019-05-26T01:15:31.462Z,13.90
2019-05-26T01:18:39.312Z,14.00
2019-05-26T01:21:47.045Z,14.00
2019-05-26T01:24:54.921Z,14.00
2019-05-26T01:28:02.961Z,14.00
2019-05-26T01:31:11.016Z,14.00
2019-05-26T01:34:21.933Z,13.90
2019-05-26T01:37:29.659Z,14.00
2019-05-26T01:40:42.461Z,13.90
2019-05-26T01:43:50.235Z,13.90
2019-05-26T01:46:58.203Z,13.90
2019-05-26T01:50:06.199Z,13.90
2019-05-26T01:53:14.194Z,13.90
2019-05-26T01:56:22.113Z,13.90
2019-05-26T01:59:29.977Z,13.90
2019-05-26T02:02:37.726Z,13.80
2019-05-26T02:05:45.679Z,13.80
2019-05-26T02:08:55.661Z,13.80
2019-05-26T02:12:03.888Z,13.70
2019-05-26T02:15:12.009Z,13.80
2019-05-26T02:18:22.637Z,13.70
2019-05-26T02:21:30.598Z,13.70
2019-05-26T02:24:39.860Z,13.70
2019-05-26T02:27:48.069Z,13.70
2019-05-26T02:30:57.093Z,13.60
2019-05-26T02:34:07.988Z,13.60
2019-05-26T02:37:16.088Z,13.60
2019-05-26T02:40:24.610Z,13.60
2019-05-26T02:43:32.820Z,13.60
2019-05-26T02:46:40.677Z,13.60
2019-05-26T02:49:50.675Z,13.50
2019-05-26T02:52:58.928Z,13.50
2019-05-26T02:56:07.136Z,13.50
2019-05-26T02:59:15.271Z,13.40
2019-05-26T03:02:23.227Z,13.50
2019-05-26T03:05:32.779Z,13.50
2019-05-26T03:08:41.465Z,13.40
2019-05-26T03:11:50.950Z,13.50
2019-05-26T03:15:00.474Z,13.50
2019-05-26T03:18:08.319Z,13.50
2019-05-26T03:21:20.638Z,13.40
2019-05-26T03:24:32.381Z,13.50
2019-05-26T03:27:40.200Z,13.40
2019-05-26T03:30:48.129Z,13.40
2019-05-26T03:33:57.667Z,13.30
2019-05-26T03:37:05.553Z,13.30
2019-05-26T03:40:13.565Z,13.30
2019-05-26T03:43:23.310Z,13.30
2019-05-26T03:46:30.865Z,13.30
2019-05-26T03:49:38.432Z,13.40
2019-05-26T03:52:47.848Z,13.50
2019-05-26T03:55:55.890Z,13.60
2019-05-26T03:59:03.409Z,13.70
2019-05-26T04:02:12.227Z,13.70
2019-05-26T04:05:20.153Z,14.00
2019-05-26T04:08:28.126Z,14.30
2019-05-26T04:11:36.022Z,14.60
2019-05-26T04:14:43.526Z,15.00
2019-05-26T04:17:51.374Z,15.50
2019-05-26T04:20:59.154Z,16.00
2019-05-26T04:24:06.889Z,16.30
2019-05-26T04:27:14.680Z,16.40
2019-05-26T04:30:22.430Z,16.40
2019-05-26T04:33:30.207Z,16.50
2019-05-26T04:36:37.946Z,17.10
2019-05-26T04:39:50.184Z,17.50
2019-05-26T04:42:57.995Z,17.70
2019-05-26T04:46:06.153Z,17.80
2019-05-26T04:49:13.803Z,18.20
2019-05-26T04:52:21.590Z,18.50
2019-05-26T04:55:29.483Z,18.30
2019-05-26T04:58:37.161Z,18.10
2019-05-26T05:01:44.895Z,18.70
2019-05-26T05:04:53.027Z,19.40
2019-05-26T05:08:00.942Z,20.20
2019-05-26T05:11:12.388Z,20.50
2019-05-26T05:14:20.164Z,21.30
2019-05-26T05:17:27.963Z,21.50
2019-05-26T05:20:35.708Z,22.30
2019-05-26T05:23:43.651Z,22.50
2019-05-26T05:26:51.263Z,22.40
2019-05-26T05:29:59.456Z,22.40
2019-05-26T05:33:07.405Z,22.50
2019-05-26T05:36:16.910Z,23.10
2019-05-26T05:39:27.179Z,23.70
2019-05-26T05:42:35.241Z,24.00
2019-05-26T05:45:42.912Z,24.20
2019-05-26T05:48:50.422Z,24.40
2019-05-26T05:51:58.130Z,25.10
2019-05-26T05:55:07.258Z,25.20
2019-05-26T05:58:14.990Z,25.40
2019-05-26T06:01:25.803Z,26.00
2019-05-26T06:04:33.943Z,26.10
2019-05-26T06:07:41.665Z,26.50
2019-05-26T06:10:49.374Z,26.60
2019-05-26T06:13:57.287Z,26.00
2019-05-26T06:17:05.220Z,25.20
2019-05-26T06:20:13.775Z,25.40
2019-05-26T06:23:21.675Z,25.30
2019-05-26T06:26:29.252Z,25.00
2019-05-26T06:29:38.640Z,25.40
2019-05-26T06:32:46.753Z,25.30
2019-05-26T06:35:54.279Z,25.20
2019-05-26T06:39:03.240Z,25.80
2019-05-26T06:42:13.295Z,25.80
2019-05-26T06:45:22.515Z,26.40
2019-05-26T06:48:30.638Z,26.50
2019-05-26T06:51:38.347Z,26.70
2019-05-26T06:54:47.607Z,26.10
2019-05-26T06:57:56.003Z,26.10
2019-05-26T07:01:03.882Z,26.60
2019-05-26T07:04:12.217Z,26.90
2019-05-26T07:07:23.647Z,26.70
2019-05-26T07:10:31.715Z,26.80
2019-05-26T07:13:39.378Z,26.90
2019-05-26T07:16:49.183Z,26.50
2019-05-26T07:19:57.388Z,26.10
2019-05-26T07:23:07.079Z,26.60
2019-05-26T07:26:15.161Z,27.10
2019-05-26T07:29:23.375Z,27.50
2019-05-26T07:32:31.164Z,27.50
2019-05-26T07:35:39.409Z,27.80
2019-05-26T07:38:50.689Z,27.80
2019-05-26T07:42:09.990Z,27.80
2019-05-26T07:45:11.658Z,27.40
2019-05-26T07:48:20.293Z,27.40
2019-05-26T07:51:28.705Z,27.60
2019-05-26T07:54:38.322Z,27.30
2019-05-26T07:57:47.278Z,27.10
2019-05-26T08:00:55.267Z,27.20
2019-05-26T08:04:03.443Z,27.50
2019-05-26T08:07:11.759Z,27.70
2019-05-26T08:10:19.591Z,27.60
2019-05-26T08:13:27.928Z,27.60
2019-05-26T08:16:39.139Z,27.60
2019-05-26T08:19:48.083Z,27.70
2019-05-26T08:22:56.373Z,27.90
2019-05-26T08:26:05.508Z,27.10
2019-05-26T08:29:15.201Z,27.00
2019-05-26T08:32:23.541Z,27.00
2019-05-26T08:35:32.194Z,27.20
2019-05-26T08:38:40.478Z,27.20
2019-05-26T08:41:48.651Z,27.60
2019-05-26T08:44:56.941Z,27.70
2019-05-26T08:48:05.074Z,27.50
2019-05-26T08:51:13.130Z,27.40
2019-05-26T08:54:21.306Z,27.10
2019-05-26T08:57:30.124Z,26.80
2019-05-26T09:00:38.621Z,27.40
2019-05-26T09:03:47.135Z,27.80
2019-05-26T09:06:54.907Z,27.90
2019-05-26T09:10:03.197Z,27.80
2019-05-26T09:13:11.715Z,27.50
2019-05-26T09:16:19.596Z,27.40
2019-05-26T09:19:27.170Z,27.50
2019-05-26T09:22:34.607Z,28.00
2019-05-26T09:25:42.284Z,28.20
2019-05-26T09:28:49.813Z,28.10
2019-05-26T09:31:57.354Z,28.00
2019-05-26T09:35:05.524Z,28.40
2019-05-26T09:38:13.093Z,28.10
2019-05-26T09:41:20.873Z,28.90
2019-05-26T09:44:28.517Z,28.70
2019-05-26T09:47:36.167Z,28.90
2019-05-26T09:50:43.715Z,28.90
2019-05-26T09:54:01.331Z,29.00
2019-05-26T09:57:00.866Z,28.00
2019-05-26T10:00:09.247Z,27.30
2019-05-26T10:03:17.005Z,26.60
2019-05-26T10:06:25.176Z,26.10
2019-05-26T10:09:33.097Z,26.00
2019-05-26T10:12:40.929Z,25.40
2019-05-26T10:15:49.107Z,25.70
2019-05-26T10:18:56.946Z,26.00
2019-05-26T10:22:04.893Z,26.00
2019-05-26T10:25:13.874Z,26.30
2019-05-26T10:28:21.355Z,26.60
2019-05-26T10:31:28.796Z,27.00
2019-05-26T10:34:36.211Z,26.80
2019-05-26T10:37:43.814Z,27.10
2019-05-26T10:40:51.314Z,26.50
2019-05-26T10:43:58.836Z,25.90
2019-05-26T10:47:06.538Z,25.60
2019-05-26T10:50:15.797Z,25.80
2019-05-26T10:53:23.322Z,25.70
2019-05-26T10:56:30.799Z,25.80
2019-05-26T10:59:38.473Z,26.30
2019-05-26T11:02:46.033Z,26.10
2019-05-26T11:05:53.588Z,25.90
2019-05-26T11:09:01.148Z,26.00
2019-05-26T11:12:10.192Z,26.00
2019-05-26T11:15:18.068Z,25.80
2019-05-26T11:18:25.717Z,25.90
2019-05-26T11:21:33.262Z,25.90
2019-05-26T11:24:40.752Z,25.80
2019-05-26T11:27:48.400Z,26.30
2019-05-26T11:30:55.955Z,26.70
2019-05-26T11:34:03.440Z,26.70
2019-05-26T11:37:10.876Z,26.60
2019-05-26T11:40:18.610Z,26.60
2019-05-26T11:43:26.263Z,26.50
2019-05-26T11:46:33.913Z,26.60
2019-05-26T11:49:41.600Z,26.70
2019-05-26T11:52:49.481Z,26.90
2019-05-26T11:55:57.678Z,26.60
2019-05-26T11:59:06.153Z,27.00
2019-05-26T12:02:13.782Z,26.60
2019-05-26T12:05:21.598Z,26.50
2019-05-26T12:08:29.058Z,26.50
2019-05-26T12:11:36.612Z,26.40
2019-05-26T12:14:44.113Z,26.30
2019-05-26T12:17:51.644Z,26.40
2019-05-26T12:20:59.206Z,26.30
2019-05-26T12:24:07.704Z,25.90
2019-05-26T12:27:15.304Z,25.70
2019-05-26T12:30:24.269Z,25.50
2019-05-26T12:33:31.758Z,25.60
2019-05-26T12:36:39.619Z,25.50
2019-05-26T12:39:47.472Z,25.30
2019-05-26T12:42:54.977Z,25.10
2019-05-26T12:46:02.871Z,24.90
2019-05-26T12:49:10.645Z,24.90
2019-05-26T12:52:18.296Z,25.00
2019-05-26T12:55:26.778Z,24.80
2019-05-26T12:58:34.414Z,24.70
2019-05-26T13:01:42.579Z,24.60
2019-05-26T13:04:50.234Z,24.40
2019-05-26T13:07:57.880Z,24.50
2019-05-26T13:11:05.451Z,24.60
2019-05-26T13:14:12.932Z,24.40
2019-05-26T13:17:20.392Z,24.20
2019-05-26T13:20:28.031Z,24.20
2019-05-26T13:23:35.728Z,24.10
2019-05-26T13:26:43.478Z,24.00
2019-05-26T13:29:50.965Z,23.70
2019-05-26T13:32:58.643Z,23.50
2019-05-26T13:36:06.946Z,23.60
2019-05-26T13:39:14.471Z,23.70
2019-05-26T13:42:21.908Z,23.70
2019-05-26T13:45:29.654Z,23.60
2019-05-26T13:48:37.259Z,23.60
2019-05-26T13:51:45.483Z,23.50
2019-05-26T13:54:54.032Z,23.60
2019-05-26T13:58:01.826Z,23.60
2019-05-26T14:01:09.558Z,23.70
2019-05-26T14:04:17.014Z,23.50
2019-05-26T14:07:24.658Z,23.70
2019-05-26T14:10:34.298Z,23.80
2019-05-26T14:13:41.778Z,23.90
2019-05-26T14:16:52.524Z,24.00
2019-05-26T14:20:02.543Z,24.00
2019-05-26T14:23:10.857Z,24.00
2019-05-26T14:26:18.361Z,24.10
2019-05-26T14:29:25.818Z,24.10
2019-05-26T14:32:33.322Z,24.10
2019-05-26T14:35:41.826Z,23.80
2019-05-26T14:38:49.356Z,23.70
2019-05-26T14:41:57.370Z,23.70
2019-05-26T14:45:05.544Z,23.70
2019-05-26T14:48:14.082Z,23.70
2019-05-26T14:51:21.551Z,23.50
2019-05-26T14:54:29.052Z,23.40
2019-05-26T14:57:36.524Z,23.40
2019-05-26T15:00:44.107Z,23.60
2019-05-26T15:03:51.604Z,23.60
2019-05-26T15:06:59.133Z,23.70
2019-05-26T15:10:06.921Z,23.60
2019-05-26T15:13:14.410Z,23.40
2019-05-26T15:16:21.866Z,23.30
2019-05-26T15:19:29.434Z,23.20
2019-05-26T15:22:37.267Z,23.30
2019-05-26T15:25:44.734Z,23.40
2019-05-26T15:28:52.268Z,23.40
2019-05-26T15:32:02.739Z,23.30
2019-05-26T15:35:10.698Z,23.20
2019-05-26T15:38:18.427Z,23.00
2019-05-26T15:41:26.040Z,22.90
2019-05-26T15:44:33.496Z,22.80
2019-05-26T15:47:41.026Z,22.70
2019-05-26T15:50:48.544Z,22.60
2019-05-26T15:53:56.064Z,22.50
2019-05-26T15:57:03.646Z,22.50
2019-05-26T16:00:11.527Z,22.50
2019-05-26T16:03:19.042Z,22.60
2019-05-26T16:06:26.484Z,22.60
2019-05-26T16:09:34.071Z,22.60
2019-05-26T16:12:41.542Z,22.70
2019-05-26T16:15:49.070Z,22.70
2019-05-26T16:18:56.533Z,22.80
2019-05-26T16:22:04.023Z,22.70
2019-05-26T16:25:11.726Z,22.70
2019-05-26T16:28:19.248Z,22.60
2019-05-26T16:31:26.782Z,22.50
2019-05-26T16:34:34.474Z,22.50
2019-05-26T16:37:41.966Z,22.50
2019-05-26T16:40:49.567Z,22.50
2019-05-26T16:43:57.189Z,22.50
2019-05-26T16:47:04.699Z,22.40
2019-05-26T16:50:12.366Z,22.30
2019-05-26T16:53:19.834Z,22.30
2019-05-26T16:56:27.271Z,22.20
2019-05-26T16:59:36.441Z,22.20
2019-05-26T17:02:43.990Z,22.20
2019-05-26T17:06:06.821Z,22.20
2019-05-26T17:09:01.035Z,22.30
2019-05-26T17:12:10.088Z,22.30
2019-05-26T17:15:17.640Z,22.40
2019-05-26T17:18:25.068Z,22.40
2019-05-26T17:21:32.746Z,22.40
2019-05-26T17:24:40.328Z,22.30
2019-05-26T17:27:47.937Z,22.20
2019-05-26T17:30:55.699Z,22.20
2019-05-26T17:34:04.205Z,22.30
2019-05-26T17:37:11.637Z,22.10
2019-05-26T17:40:20.671Z,22.10
2019-05-26T17:43:28.167Z,22.00
2019-05-26T17:46:35.599Z,22.00
2019-05-26T17:49:43.054Z,21.80
2019-05-26T17:52:51.677Z,21.60
2019-05-26T17:55:59.099Z,21.50
2019-05-26T17:59:06.692Z,21.40
2019-05-26T18:02:14.219Z,21.20
2019-05-26T18:05:21.783Z,21.10
2019-05-26T18:08:29.356Z,20.90
2019-05-26T18:11:38.065Z,20.80
2019-05-26T18:14:45.637Z,20.70
2019-05-26T18:17:53.166Z,20.60
2019-05-26T18:21:00.709Z,20.50
2019-05-26T18:24:08.158Z,20.30
2019-05-26T18:27:15.655Z,20.20
2019-05-26T18:30:23.277Z,20.10
2019-05-26T18:33:30.883Z,20.00
2019-05-26T18:36:38.369Z,19.90
2019-05-26T18:39:45.899Z,19.80
2019-05-26T18:42:53.812Z,19.70
2019-05-26T18:46:01.278Z,19.60
2019-05-26T18:49:09.166Z,19.50
2019-05-26T18:52:16.817Z,19.40
2019-05-26T18:55:24.386Z,19.30
2019-05-26T18:58:31.983Z,19.20
2019-05-26T19:01:39.610Z,19.10
2019-05-26T19:04:47.263Z,19.00
2019-05-26T19:07:54.881Z,18.90
2019-05-26T19:11:02.433Z,18.90
2019-05-26T19:14:10.215Z,18.80
2019-05-26T19:17:18.331Z,18.70
2019-05-26T19:20:25.873Z,18.70
2019-05-26T19:23:33.409Z,18.60
2019-05-26T19:26:41.041Z,18.60
2019-05-26T19:29:48.643Z,18.60
2019-05-26T19:32:56.096Z,18.50
2019-05-26T19:36:08.841Z,18.50
2019-05-26T19:39:12.931Z,18.40
2019-05-26T19:42:20.585Z,18.40
2019-05-26T19:45:28.468Z,18.30
2019-05-26T19:48:37.328Z,18.30
2019-05-26T19:51:45.461Z,18.20
2019-05-26T19:54:53.100Z,18.20
2019-05-26T19:58:00.933Z,18.10
2019-05-26T20:01:08.504Z,18.10
2019-05-26T20:04:16.702Z,18.00
2019-05-26T20:07:24.190Z,18.00
2019-05-26T20:10:31.767Z,17.90
2019-05-26T20:13:39.399Z,17.90
2019-05-26T20:16:46.967Z,17.80
2019-05-26T20:19:54.517Z,17.70
2019-05-26T20:23:01.948Z,17.70
2019-05-26T20:26:09.494Z,17.60
2019-05-26T20:29:17.290Z,17.50
2019-05-26T20:32:24.913Z,17.50
2019-05-26T20:35:32.545Z,17.40
2019-05-26T20:38:40.027Z,17.40
2019-05-26T20:41:47.478Z,17.30
2019-05-26T20:44:56.533Z,17.20
2019-05-26T20:48:04.109Z,17.10
2019-05-26T20:51:11.519Z,17.10
2019-05-26T20:54:19.084Z,17.00
2019-05-26T20:57:26.518Z,17.00
2019-05-26T21:00:33.957Z,16.90
2019-05-26T21:03:41.471Z,16.80
2019-05-26T21:06:48.935Z,16.80
2019-05-26T21:09:56.434Z,16.70
2019-05-26T21:13:03.867Z,16.80
2019-05-26T21:16:11.297Z,16.70
2019-05-26T21:19:18.761Z,16.70
2019-05-26T21:22:26.191Z,16.60
2019-05-26T21:25:33.660Z,16.60
2019-05-26T21:28:41.608Z,16.50
2019-05-26T21:31:49.047Z,16.50
2019-05-26T21:34:56.599Z,16.40
2019-05-26T21:38:04.035Z,16.40
2019-05-26T21:41:11.637Z,16.40
2019-05-26T21:44:19.059Z,16.30
2019-05-26T21:47:26.619Z,16.30
2019-05-26T21:50:34.136Z,16.30
2019-05-26T21:53:41.567Z,16.30
2019-05-26T21:56:48.993Z,16.30
2019-05-26T21:59:56.441Z,16.30
2019-05-26T22:03:03.927Z,16.30
2019-05-26T22:06:11.504Z,16.40
2019-05-26T22:09:19.237Z,16.40
2019-05-26T22:12:27.145Z,16.40
2019-05-26T22:15:34.628Z,16.40
2019-05-26T22:18:42.154Z,16.50
2019-05-26T22:21:49.587Z,16.50
2019-05-26T22:24:57.278Z,16.50
2019-05-26T22:28:04.778Z,16.50
2019-05-26T22:31:13.305Z,16.50
2019-05-26T22:34:20.755Z,16.50
2019-05-26T22:37:28.255Z,16.50
2019-05-26T22:40:35.760Z,16.50
2019-05-26T22:43:43.202Z,16.60
2019-05-26T22:46:51.080Z,16.60
2019-05-26T22:50:01.141Z,16.60
2019-05-26T22:53:08.668Z,16.50
2019-05-26T22:56:16.237Z,16.40
2019-05-26T22:59:23.774Z,16.40
2019-05-26T23:02:31.258Z,16.30
2019-05-26T23:05:40.970Z,16.20
2019-05-26T23:08:48.446Z,16.20
2019-05-26T23:11:55.975Z,16.20
2019-05-26T23:15:03.597Z,16.10
2019-05-26T23:18:11.172Z,16.10
2019-05-26T23:21:18.602Z,16.10
2019-05-26T23:24:26.123Z,16.00
2019-05-26T23:27:33.563Z,16.10
2019-05-26T23:30:41.215Z,16.00
2019-05-26T23:33:48.739Z,16.00
2019-05-26T23:36:57.819Z,16.00
2019-05-26T23:40:06.292Z,16.00
2019-05-26T23:43:13.866Z,16.00
2019-05-26T23:46:21.267Z,16.10
2019-05-26T23:49:28.707Z,16.10
2019-05-26T23:52:36.202Z,16.20
2019-05-26T23:55:43.623Z,16.20
2019-05-26T23:58:51.115Z,16.20
